sensor_id;sensor_type;location;lat;lon;timestamp;temperature;humidity
19999;DHT22;10160;50.926;4.374;2024-01-06T00:02:27;8.10;99.90
19999;DHT22;10160;50.926;4.374;2024-01-06T00:04:53;8.20;99.90
19999;DHT22;10160;50.926;4.374;2024-01-06T00:07:19;8.20;99.90
19999;DHT22;10160;50.926;4.374;2024-01-06T00:09:44;8.20;99.90
19999;DHT22;10160;50.926;4.374;2024-01-06T00:12:10;8.30;99.90
19999;DHT22;10160;50.926;4.374;2024-01-06T00:14:38;8.30;99.90
19999;DHT22;10160;50.926;4.374;2024-01-06T00:17:07;8.30;99.90
19999;DHT22;10160;50.926;4.374;2024-01-06T00:19:36;8.30;99.90
19999;DHT22;10160;50.926;4.374;2024-01-06T00:22:05;8.40;99.90
19999;DHT22;10160;50.926;4.374;2024-01-06T00:24:31;8.30;99.90
19999;DHT22;10160;50.926;4.374;2024-01-06T00:26:57;8.30;99.90
19999;DHT22;10160;50.926;4.374;2024-01-06T00:29:22;8.30;99.90
19999;DHT22;10160;50.926;4.374;2024-01-06T00:31:48;8.40;99.90
19999;DHT22;10160;50.926;4.374;2024-01-06T00:34:16;8.40;99.90
19999;DHT22;10160;50.926;4.374;2024-01-06T00:36:42;8.50;99.90
19999;DHT22;10160;50.926;4.374;2024-01-06T00:39:10;8.40;99.90
19999;DHT22;10160;50.926;4.374;2024-01-06T00:41:36;8.50;99.90
19999;DHT22;10160;50.926;4.374;2024-01-06T00:44:01;8.50;99.90
19999;DHT22;10160;50.926;4.374;2024-01-06T00:46:33;8.30;99.90
19999;DHT22;10160;50.926;4.374;2024-01-06T00:48:58;8.30;99.90
19999;DHT22;10160;50.926;4.374;2024-01-06T00:51:28;8.30;99.90
19999;DHT22;10160;50.926;4.374;2024-01-06T00:54:07;8.30;99.90
19999;DHT22;10160;50.926;4.374;2024-01-06T00:56:32;8.20;99.90
19999;DHT22;10160;50.926;4.374;2024-01-06T00:59:00;8.30;99.90
19999;DHT22;10160;50.926;4.374;2024-01-06T01:01:26;8.20;99.90
19999;DHT22;10160;50.926;4.374;2024-01-06T01:03:52;8.20;99.90
19999;DHT22;10160;50.926;4.374;2024-01-06T01:06:17;8.20;99.90
19999;DHT22;10160;50.926;4.374;2024-01-06T01:08:45;8.20;99.90
19999;DHT22;10160;50.926;4.374;2024-01-06T01:11:11;8.20;99.90
19999;DHT22;10160;50.926;4.374;2024-01-06T01:13:37;8.20;99.90
19999;DHT22;10160;50.926;4.374;2024-01-06T01:16:03;8.10;99.90
19999;DHT22;10160;50.926;4.374;2024-01-06T01:18:28;8.10;99.90
19999;DHT22;10160;50.926;4.374;2024-01-06T01:20:54;8.10;99.90
19999;DHT22;10160;50.926;4.374;2024-01-06T01:23:20;8.10;99.90
19999;DHT22;10160;50.926;4.374;2024-01-06T01:25:45;8.10;99.90
19999;DHT22;10160;50.926;4.374;2024-01-06T01:28:11;8.10;99.90
19999;DHT22;10160;50.926;4.374;2024-01-06T01:30:36;8.20;99.90
19999;DHT22;10160;50.926;4.374;2024-01-06T01:33:10;8.10;99.90
19999;DHT22;10160;50.926;4.374;2024-01-06T01:35:38;8.10;99.90
19999;DHT22;10160;50.926;4.374;2024-01-06T01:38:04;8.00;99.90
19999;DHT22;10160;50.926;4.374;2024-01-06T01:40:29;8.10;99.90
19999;DHT22;10160;50.926;4.374;2024-01-06T01:42:55;8.00;99.90
19999;DHT22;10160;50.926;4.374;2024-01-06T01:45:21;8.20;99.90
19999;DHT22;10160;50.926;4.374;2024-01-06T01:47:46;8.10;99.90
19999;DHT22;10160;50.926;4.374;2024-01-06T01:50:12;8.20;99.90
19999;DHT22;10160;50.926;4.374;2024-01-06T01:52:40;8.20;99.90
19999;DHT22;10160;50.926;4.374;2024-01-06T01:55:06;8.20;99.90
19999;DHT22;10160;50.926;4.374;2024-01-06T01:57:32;8.20;99.90
19999;DHT22;10160;50.926;4.374;2024-01-06T02:00:00;8.20;99.90
19999;DHT22;10160;50.926;4.374;2024-01-06T02:02:26;8.20;99.90
19999;DHT22;10160;50.926;4.374;2024-01-06T02:04:56;8.20;99.90
19999;DHT22;10160;50.926;4.374;2024-01-06T02:07:22;8.20;99.90
19999;DHT22;10160;50.926;4.374;2024-01-06T02:09:47;8.20;99.90
19999;DHT22;10160;50.926;4.374;2024-01-06T02:12:13;8.20;99.90
19999;DHT22;10160;50.926;4.374;2024-01-06T02:14:39;8.30;99.90
19999;DHT22;10160;50.926;4.374;2024-01-06T02:17:04;8.40;99.90
19999;DHT22;10160;50.926;4.374;2024-01-06T02:19:30;8.40;99.90
19999;DHT22;10160;50.926;4.374;2024-01-06T02:21:55;8.40;99.90
19999;DHT22;10160;50.926;4.374;2024-01-06T02:24:21;8.40;99.90
19999;DHT22;10160;50.926;4.374;2024-01-06T02:26:47;8.40;99.90
19999;DHT22;10160;50.926;4.374;2024-01-06T02:29:12;8.40;99.90
19999;DHT22;10160;50.926;4.374;2024-01-06T02:31:38;8.40;99.90
19999;DHT22;10160;50.926;4.374;2024-01-06T02:34:04;8.50;99.90
19999;DHT22;10160;50.926;4.374;2024-01-06T02:36:29;8.50;99.90
19999;DHT22;10160;50.926;4.374;2024-01-06T02:38:55;8.50;99.90
19999;DHT22;10160;50.926;4.374;2024-01-06T02:41:21;8.40;99.90
19999;DHT22;10160;50.926;4.374;2024-01-06T02:43:46;8.50;99.90
19999;DHT22;10160;50.926;4.374;2024-01-06T02:46:12;8.40;99.90
19999;DHT22;10160;50.926;4.374;2024-01-06T02:48:38;8.40;99.90
19999;DHT22;10160;50.926;4.374;2024-01-06T02:51:04;8.40;99.90
19999;DHT22;10160;50.926;4.374;2024-01-06T02:53:29;8.50;99.90
19999;DHT22;10160;50.926;4.374;2024-01-06T02:55:55;8.50;99.90
19999;DHT22;10160;50.926;4.374;2024-01-06T02:58:21;8.40;99.90
19999;DHT22;10160;50.926;4.374;2024-01-06T03:00:46;8.40;99.90
19999;DHT22;10160;50.926;4.374;2024-01-06T03:03:12;8.50;99.90
19999;DHT22;10160;50.926;4.374;2024-01-06T03:05:37;8.50;99.90
19999;DHT22;10160;50.926;4.374;2024-01-06T03:08:04;8.50;99.90
19999;DHT22;10160;50.926;4.374;2024-01-06T03:10:29;8.70;99.90
19999;DHT22;10160;50.926;4.374;2024-01-06T03:12:58;8.70;99.90
19999;DHT22;10160;50.926;4.374;2024-01-06T03:15:24;8.60;99.90
19999;DHT22;10160;50.926;4.374;2024-01-06T03:17:49;8.60;99.90
19999;DHT22;10160;50.926;4.374;2024-01-06T03:20:20;8.70;99.90
19999;DHT22;10160;50.926;4.374;2024-01-06T03:22:46;8.70;99.90
19999;DHT22;10160;50.926;4.374;2024-01-06T03:25:12;8.70;99.90
19999;DHT22;10160;50.926;4.374;2024-01-06T03:27:37;8.60;99.90
19999;DHT22;10160;50.926;4.374;2024-01-06T03:30:04;8.60;99.90
19999;DHT22;10160;50.926;4.374;2024-01-06T03:32:29;8.40;99.90
19999;DHT22;10160;50.926;4.374;2024-01-06T03:34:55;8.60;99.90
19999;DHT22;10160;50.926;4.374;2024-01-06T03:37:21;8.80;99.90
19999;DHT22;10160;50.926;4.374;2024-01-06T03:39:47;8.80;99.90
19999;DHT22;10160;50.926;4.374;2024-01-06T03:42:16;8.90;99.90
19999;DHT22;10160;50.926;4.374;2024-01-06T03:44:42;8.90;99.90
19999;DHT22;10160;50.926;4.374;2024-01-06T03:47:07;9.00;99.90
19999;DHT22;10160;50.926;4.374;2024-01-06T03:49:33;8.90;99.90
19999;DHT22;10160;50.926;4.374;2024-01-06T03:51:58;9.00;99.90
19999;DHT22;10160;50.926;4.374;2024-01-06T03:54:24;9.00;99.90
19999;DHT22;10160;50.926;4.374;2024-01-06T03:56:50;9.00;99.90
19999;DHT22;10160;50.926;4.374;2024-01-06T03:59:15;8.90;99.90
19999;DHT22;10160;50.926;4.374;2024-01-06T04:01:41;8.90;99.90
19999;DHT22;10160;50.926;4.374;2024-01-06T04:04:07;8.90;99.90
19999;DHT22;10160;50.926;4.374;2024-01-06T04:06:34;8.90;99.90
19999;DHT22;10160;50.926;4.374;2024-01-06T04:09:06;9.00;99.90
19999;DHT22;10160;50.926;4.374;2024-01-06T04:11:31;8.80;99.90
19999;DHT22;10160;50.926;4.374;2024-01-06T04:14:00;8.70;99.90
19999;DHT22;10160;50.926;4.374;2024-01-06T04:16:26;8.70;99.90
19999;DHT22;10160;50.926;4.374;2024-01-06T04:18:55;8.80;99.90
19999;DHT22;10160;50.926;4.374;2024-01-06T04:21:20;8.80;99.90
19999;DHT22;10160;50.926;4.374;2024-01-06T04:23:47;8.80;99.90
19999;DHT22;10160;50.926;4.374;2024-01-06T04:26:13;8.80;99.90
19999;DHT22;10160;50.926;4.374;2024-01-06T04:28:38;8.90;99.90
19999;DHT22;10160;50.926;4.374;2024-01-06T04:31:04;8.90;99.90
19999;DHT22;10160;50.926;4.374;2024-01-06T04:33:30;8.80;99.90
19999;DHT22;10160;50.926;4.374;2024-01-06T04:35:56;8.80;99.90
19999;DHT22;10160;50.926;4.374;2024-01-06T04:38:26;8.80;99.90
19999;DHT22;10160;50.926;4.374;2024-01-06T04:40:52;8.70;99.90
19999;DHT22;10160;50.926;4.374;2024-01-06T04:43:20;8.70;99.90
19999;DHT22;10160;50.926;4.374;2024-01-06T04:45:45;8.60;99.90
19999;DHT22;10160;50.926;4.374;2024-01-06T04:48:11;8.60;99.90
19999;DHT22;10160;50.926;4.374;2024-01-06T04:50:40;8.70;99.90
19999;DHT22;10160;50.926;4.374;2024-01-06T04:53:05;8.80;99.90
19999;DHT22;10160;50.926;4.374;2024-01-06T04:55:31;8.80;99.90
19999;DHT22;10160;50.926;4.374;2024-01-06T04:57:57;8.70;99.90
19999;DHT22;10160;50.926;4.374;2024-01-06T05:00:28;8.60;99.90
19999;DHT22;10160;50.926;4.374;2024-01-06T05:02:54;8.70;99.90
19999;DHT22;10160;50.926;4.374;2024-01-06T05:05:20;8.50;99.90
19999;DHT22;10160;50.926;4.374;2024-01-06T05:07:45;8.40;99.90
19999;DHT22;10160;50.926;4.374;2024-01-06T05:10:11;8.50;99.90
19999;DHT22;10160;50.926;4.374;2024-01-06T05:12:37;8.60;99.90
19999;DHT22;10160;50.926;4.374;2024-01-06T05:15:05;8.70;99.90
19999;DHT22;10160;50.926;4.374;2024-01-06T05:17:31;8.70;99.90
19999;DHT22;10160;50.926;4.374;2024-01-06T05:19:57;8.70;99.90
19999;DHT22;10160;50.926;4.374;2024-01-06T05:22:23;8.60;99.90
19999;DHT22;10160;50.926;4.374;2024-01-06T05:24:49;8.40;99.90
19999;DHT22;10160;50.926;4.374;2024-01-06T05:27:18;8.60;99.90
19999;DHT22;10160;50.926;4.374;2024-01-06T05:29:44;8.60;99.90
19999;DHT22;10160;50.926;4.374;2024-01-06T05:32:09;8.70;99.90
19999;DHT22;10160;50.926;4.374;2024-01-06T05:34:35;8.70;99.90
19999;DHT22;10160;50.926;4.374;2024-01-06T05:37:01;8.70;99.90
19999;DHT22;10160;50.926;4.374;2024-01-06T05:39:27;8.70;99.90
19999;DHT22;10160;50.926;4.374;2024-01-06T05:41:53;8.70;99.90
19999;DHT22;10160;50.926;4.374;2024-01-06T05:44:22;8.70;99.90
19999;DHT22;10160;50.926;4.374;2024-01-06T05:46:47;8.70;99.90
19999;DHT22;10160;50.926;4.374;2024-01-06T05:49:13;8.70;99.90
19999;DHT22;10160;50.926;4.374;2024-01-06T05:51:44;8.50;99.90
19999;DHT22;10160;50.926;4.374;2024-01-06T05:54:10;8.40;99.90
19999;DHT22;10160;50.926;4.374;2024-01-06T05:56:36;8.50;99.90
19999;DHT22;10160;50.926;4.374;2024-01-06T05:59:01;8.60;99.90
19999;DHT22;10160;50.926;4.374;2024-01-06T06:01:31;8.70;99.90
19999;DHT22;10160;50.926;4.374;2024-01-06T06:03:57;8.80;99.90
19999;DHT22;10160;50.926;4.374;2024-01-06T06:06:22;8.90;99.90
19999;DHT22;10160;50.926;4.374;2024-01-06T06:08:48;8.90;99.90
19999;DHT22;10160;50.926;4.374;2024-01-06T06:11:14;9.00;99.90
19999;DHT22;10160;50.926;4.374;2024-01-06T06:13:43;8.90;99.90
19999;DHT22;10160;50.926;4.374;2024-01-06T06:16:12;8.90;99.90
19999;DHT22;10160;50.926;4.374;2024-01-06T06:18:38;8.80;99.90
19999;DHT22;10160;50.926;4.374;2024-01-06T06:21:04;8.80;99.90
19999;DHT22;10160;50.926;4.374;2024-01-06T06:23:30;8.80;99.90
19999;DHT22;10160;50.926;4.374;2024-01-06T06:25:56;8.80;99.90
19999;DHT22;10160;50.926;4.374;2024-01-06T06:28:22;8.80;99.90
19999;DHT22;10160;50.926;4.374;2024-01-06T06:30:47;8.70;99.90
19999;DHT22;10160;50.926;4.374;2024-01-06T06:33:13;8.70;99.90
19999;DHT22;10160;50.926;4.374;2024-01-06T06:35:39;8.80;99.90
19999;DHT22;10160;50.926;4.374;2024-01-06T06:38:04;8.80;99.90
19999;DHT22;10160;50.926;4.374;2024-01-06T06:40:33;8.80;99.90
19999;DHT22;10160;50.926;4.374;2024-01-06T06:42:59;8.70;99.90
19999;DHT22;10160;50.926;4.374;2024-01-06T06:45:27;8.80;99.90
19999;DHT22;10160;50.926;4.374;2024-01-06T06:47:56;8.70;99.90
19999;DHT22;10160;50.926;4.374;2024-01-06T06:50:21;8.60;99.90
19999;DHT22;10160;50.926;4.374;2024-01-06T06:52:47;8.70;99.90
19999;DHT22;10160;50.926;4.374;2024-01-06T06:55:15;8.70;99.90
19999;DHT22;10160;50.926;4.374;2024-01-06T06:57:41;8.50;99.90
19999;DHT22;10160;50.926;4.374;2024-01-06T07:00:10;8.30;99.90
19999;DHT22;10160;50.926;4.374;2024-01-06T07:02:36;8.10;99.90
19999;DHT22;10160;50.926;4.374;2024-01-06T07:05:02;8.10;99.90
19999;DHT22;10160;50.926;4.374;2024-01-06T07:07:28;8.10;99.90
19999;DHT22;10160;50.926;4.374;2024-01-06T07:09:53;8.10;99.90
19999;DHT22;10160;50.926;4.374;2024-01-06T07:12:19;8.00;99.90
19999;DHT22;10160;50.926;4.374;2024-01-06T07:14:45;8.10;99.90
19999;DHT22;10160;50.926;4.374;2024-01-06T07:17:10;8.10;99.90
19999;DHT22;10160;50.926;4.374;2024-01-06T07:19:37;8.10;99.90
19999;DHT22;10160;50.926;4.374;2024-01-06T07:22:03;8.20;99.90
19999;DHT22;10160;50.926;4.374;2024-01-06T07:24:33;8.10;99.90
19999;DHT22;10160;50.926;4.374;2024-01-06T07:26:59;8.30;99.90
19999;DHT22;10160;50.926;4.374;2024-01-06T07:29:24;8.50;99.90
19999;DHT22;10160;50.926;4.374;2024-01-06T07:31:53;8.50;99.90
19999;DHT22;10160;50.926;4.374;2024-01-06T07:34:18;8.40;99.90
19999;DHT22;10160;50.926;4.374;2024-01-06T07:36:44;8.40;99.90
19999;DHT22;10160;50.926;4.374;2024-01-06T07:39:13;8.40;99.90
19999;DHT22;10160;50.926;4.374;2024-01-06T07:41:38;8.50;99.90
19999;DHT22;10160;50.926;4.374;2024-01-06T07:44:04;8.50;99.90
19999;DHT22;10160;50.926;4.374;2024-01-06T07:46:30;8.60;99.90
19999;DHT22;10160;50.926;4.374;2024-01-06T07:48:57;8.40;99.90
19999;DHT22;10160;50.926;4.374;2024-01-06T07:51:23;8.50;99.90
19999;DHT22;10160;50.926;4.374;2024-01-06T07:53:48;8.40;99.90
19999;DHT22;10160;50.926;4.374;2024-01-06T07:56:14;8.40;99.90
19999;DHT22;10160;50.926;4.374;2024-01-06T07:58:39;8.50;99.90
19999;DHT22;10160;50.926;4.374;2024-01-06T08:01:08;8.40;99.90
19999;DHT22;10160;50.926;4.374;2024-01-06T08:03:34;8.40;99.90
19999;DHT22;10160;50.926;4.374;2024-01-06T08:05:59;8.40;99.90
19999;DHT22;10160;50.926;4.374;2024-01-06T08:08:26;7.90;99.90
19999;DHT22;10160;50.926;4.374;2024-01-06T08:10:52;8.10;99.90
19999;DHT22;10160;50.926;4.374;2024-01-06T08:13:17;8.20;99.90
19999;DHT22;10160;50.926;4.374;2024-01-06T08:15:43;8.30;99.90
19999;DHT22;10160;50.926;4.374;2024-01-06T08:18:09;8.30;99.90
19999;DHT22;10160;50.926;4.374;2024-01-06T08:20:40;8.30;99.90
19999;DHT22;10160;50.926;4.374;2024-01-06T08:23:06;8.20;99.90
19999;DHT22;10160;50.926;4.374;2024-01-06T08:25:31;8.10;99.90
19999;DHT22;10160;50.926;4.374;2024-01-06T08:27:57;8.10;99.90
19999;DHT22;10160;50.926;4.374;2024-01-06T08:30:23;8.00;99.90
19999;DHT22;10160;50.926;4.374;2024-01-06T08:32:49;8.10;99.90
19999;DHT22;10160;50.926;4.374;2024-01-06T08:35:15;7.70;99.90
19999;DHT22;10160;50.926;4.374;2024-01-06T08:37:42;7.80;99.90
19999;DHT22;10160;50.926;4.374;2024-01-06T08:40:09;7.80;99.90
19999;DHT22;10160;50.926;4.374;2024-01-06T08:42:35;7.90;99.90
19999;DHT22;10160;50.926;4.374;2024-01-06T08:45:04;7.90;99.90
19999;DHT22;10160;50.926;4.374;2024-01-06T08:47:30;8.00;99.90
19999;DHT22;10160;50.926;4.374;2024-01-06T08:49:57;8.00;99.90
19999;DHT22;10160;50.926;4.374;2024-01-06T08:52:23;7.90;99.90
19999;DHT22;10160;50.926;4.374;2024-01-06T08:54:49;7.90;99.90
19999;DHT22;10160;50.926;4.374;2024-01-06T08:57:18;7.90;99.90
19999;DHT22;10160;50.926;4.374;2024-01-06T08:59:44;8.00;99.90
19999;DHT22;10160;50.926;4.374;2024-01-06T09:02:11;8.10;99.90
19999;DHT22;10160;50.926;4.374;2024-01-06T09:04:36;7.80;99.90
19999;DHT22;10160;50.926;4.374;2024-01-06T09:07:02;7.80;99.90
19999;DHT22;10160;50.926;4.374;2024-01-06T09:09:28;7.80;99.90
19999;DHT22;10160;50.926;4.374;2024-01-06T09:11:55;7.80;99.90
19999;DHT22;10160;50.926;4.374;2024-01-06T09:14:21;7.80;99.90
19999;DHT22;10160;50.926;4.374;2024-01-06T09:16:46;7.60;99.90
19999;DHT22;10160;50.926;4.374;2024-01-06T09:19:12;7.80;99.90
19999;DHT22;10160;50.926;4.374;2024-01-06T09:21:37;7.90;99.90
19999;DHT22;10160;50.926;4.374;2024-01-06T09:24:03;7.90;99.90
19999;DHT22;10160;50.926;4.374;2024-01-06T09:26:35;7.90;99.90
19999;DHT22;10160;50.926;4.374;2024-01-06T09:29:01;8.00;99.90
19999;DHT22;10160;50.926;4.374;2024-01-06T09:31:27;8.00;99.90
19999;DHT22;10160;50.926;4.374;2024-01-06T09:33:55;8.00;99.90
19999;DHT22;10160;50.926;4.374;2024-01-06T09:36:21;8.10;99.90
19999;DHT22;10160;50.926;4.374;2024-01-06T09:38:46;8.10;99.90
19999;DHT22;10160;50.926;4.374;2024-01-06T09:41:12;8.20;99.90
19999;DHT22;10160;50.926;4.374;2024-01-06T09:43:38;8.30;99.90
19999;DHT22;10160;50.926;4.374;2024-01-06T09:46:26;8.30;99.90
19999;DHT22;10160;50.926;4.374;2024-01-06T09:48:53;8.20;99.90
19999;DHT22;10160;50.926;4.374;2024-01-06T09:51:19;8.20;99.90
19999;DHT22;10160;50.926;4.374;2024-01-06T09:53:56;8.10;99.90
19999;DHT22;10160;50.926;4.374;2024-01-06T09:56:24;8.00;99.90
19999;DHT22;10160;50.926;4.374;2024-01-06T09:58:50;7.90;99.90
19999;DHT22;10160;50.926;4.374;2024-01-06T10:01:18;7.90;99.90
19999;DHT22;10160;50.926;4.374;2024-01-06T10:03:44;8.00;99.90
19999;DHT22;10160;50.926;4.374;2024-01-06T10:06:16;7.90;99.90
19999;DHT22;10160;50.926;4.374;2024-01-06T10:08:52;7.90;99.90
19999;DHT22;10160;50.926;4.374;2024-01-06T10:11:24;8.00;99.90
19999;DHT22;10160;50.926;4.374;2024-01-06T10:13:50;7.90;99.90
19999;DHT22;10160;50.926;4.374;2024-01-06T10:16:17;7.80;99.90
19999;DHT22;10160;50.926;4.374;2024-01-06T10:18:46;7.70;99.90
19999;DHT22;10160;50.926;4.374;2024-01-06T10:21:12;7.80;99.90
19999;DHT22;10160;50.926;4.374;2024-01-06T10:23:39;7.90;99.90
19999;DHT22;10160;50.926;4.374;2024-01-06T10:26:05;8.00;99.90
19999;DHT22;10160;50.926;4.374;2024-01-06T10:28:30;8.00;99.90
19999;DHT22;10160;50.926;4.374;2024-01-06T10:30:57;8.00;99.90
19999;DHT22;10160;50.926;4.374;2024-01-06T10:33:25;8.10;99.90
19999;DHT22;10160;50.926;4.374;2024-01-06T10:35:50;7.90;99.90
19999;DHT22;10160;50.926;4.374;2024-01-06T10:38:17;8.00;99.90
19999;DHT22;10160;50.926;4.374;2024-01-06T10:40:59;8.00;99.90
19999;DHT22;10160;50.926;4.374;2024-01-06T10:43:26;8.00;99.90
19999;DHT22;10160;50.926;4.374;2024-01-06T10:45:58;7.90;99.90
19999;DHT22;10160;50.926;4.374;2024-01-06T10:48:25;7.80;99.90
19999;DHT22;10160;50.926;4.374;2024-01-06T10:50:52;7.80;99.90
19999;DHT22;10160;50.926;4.374;2024-01-06T10:53:20;7.90;99.90
19999;DHT22;10160;50.926;4.374;2024-01-06T10:55:49;7.90;99.90
19999;DHT22;10160;50.926;4.374;2024-01-06T10:58:17;7.50;99.90
19999;DHT22;10160;50.926;4.374;2024-01-06T11:00:43;7.70;99.90
19999;DHT22;10160;50.926;4.374;2024-01-06T11:03:10;7.70;99.90
19999;DHT22;10160;50.926;4.374;2024-01-06T11:05:37;7.70;99.90
19999;DHT22;10160;50.926;4.374;2024-01-06T11:08:04;7.70;99.90
19999;DHT22;10160;50.926;4.374;2024-01-06T11:10:30;7.70;99.90
19999;DHT22;10160;50.926;4.374;2024-01-06T11:13:16;7.60;99.90
19999;DHT22;10160;50.926;4.374;2024-01-06T11:15:47;7.40;99.90
19999;DHT22;10160;50.926;4.374;2024-01-06T11:21:20;7.70;99.90
19999;DHT22;10160;50.926;4.374;2024-01-06T11:24:14;7.70;99.90
19999;DHT22;10160;50.926;4.374;2024-01-06T11:26:44;7.80;99.90
19999;DHT22;10160;50.926;4.374;2024-01-06T11:29:10;7.80;99.90
19999;DHT22;10160;50.926;4.374;2024-01-06T11:31:37;7.60;99.90
19999;DHT22;10160;50.926;4.374;2024-01-06T11:34:18;7.60;99.90
19999;DHT22;10160;50.926;4.374;2024-01-06T11:36:48;7.60;99.90
19999;DHT22;10160;50.926;4.374;2024-01-06T11:39:42;7.70;99.90
19999;DHT22;10160;50.926;4.374;2024-01-06T11:42:10;7.80;99.90
19999;DHT22;10160;50.926;4.374;2024-01-06T11:44:41;7.80;99.90
19999;DHT22;10160;50.926;4.374;2024-01-06T11:47:08;7.80;99.90
19999;DHT22;10160;50.926;4.374;2024-01-06T11:49:37;7.80;99.90
19999;DHT22;10160;50.926;4.374;2024-01-06T11:52:03;7.80;99.90
19999;DHT22;10160;50.926;4.374;2024-01-06T11:54:29;7.80;99.90
19999;DHT22;10160;50.926;4.374;2024-01-06T11:56:56;7.70;99.90
19999;DHT22;10160;50.926;4.374;2024-01-06T11:59:23;7.70;99.90
19999;DHT22;10160;50.926;4.374;2024-01-06T12:01:48;7.60;99.90
19999;DHT22;10160;50.926;4.374;2024-01-06T12:04:15;7.60;99.90
19999;DHT22;10160;50.926;4.374;2024-01-06T12:06:41;7.50;99.90
19999;DHT22;10160;50.926;4.374;2024-01-06T12:09:09;7.60;99.90
19999;DHT22;10160;50.926;4.374;2024-01-06T12:11:35;7.70;99.90
19999;DHT22;10160;50.926;4.374;2024-01-06T12:14:03;7.70;99.90
19999;DHT22;10160;50.926;4.374;2024-01-06T12:16:28;7.60;99.90
19999;DHT22;10160;50.926;4.374;2024-01-06T12:18:54;7.60;99.90
19999;DHT22;10160;50.926;4.374;2024-01-06T12:21:28;7.50;99.90
19999;DHT22;10160;50.926;4.374;2024-01-06T12:23:54;7.50;99.90
19999;DHT22;10160;50.926;4.374;2024-01-06T12:26:36;7.50;99.90
19999;DHT22;10160;50.926;4.374;2024-01-06T12:29:04;7.50;99.90
19999;DHT22;10160;50.926;4.374;2024-01-06T12:31:29;7.40;99.90
19999;DHT22;10160;50.926;4.374;2024-01-06T12:33:56;7.40;99.90
19999;DHT22;10160;50.926;4.374;2024-01-06T12:36:21;7.50;99.90
19999;DHT22;10160;50.926;4.374;2024-01-06T12:38:47;7.50;99.90
19999;DHT22;10160;50.926;4.374;2024-01-06T12:41:13;7.50;99.90
19999;DHT22;10160;50.926;4.374;2024-01-06T12:43:39;7.30;99.90
19999;DHT22;10160;50.926;4.374;2024-01-06T12:46:04;7.50;99.90
19999;DHT22;10160;50.926;4.374;2024-01-06T12:48:30;7.30;99.90
19999;DHT22;10160;50.926;4.374;2024-01-06T12:50:56;7.50;99.90
19999;DHT22;10160;50.926;4.374;2024-01-06T12:53:21;7.50;99.90
19999;DHT22;10160;50.926;4.374;2024-01-06T12:55:47;7.60;99.90
19999;DHT22;10160;50.926;4.374;2024-01-06T12:58:13;7.30;99.90
19999;DHT22;10160;50.926;4.374;2024-01-06T13:00:38;7.40;99.90
19999;DHT22;10160;50.926;4.374;2024-01-06T13:03:08;7.30;99.90
19999;DHT22;10160;50.926;4.374;2024-01-06T13:05:34;7.40;99.90
19999;DHT22;10160;50.926;4.374;2024-01-06T13:07:59;7.40;99.90
19999;DHT22;10160;50.926;4.374;2024-01-06T13:10:25;7.30;99.90
19999;DHT22;10160;50.926;4.374;2024-01-06T13:12:51;7.50;99.90
19999;DHT22;10160;50.926;4.374;2024-01-06T13:15:16;7.60;99.90
19999;DHT22;10160;50.926;4.374;2024-01-06T13:17:42;7.60;99.90
19999;DHT22;10160;50.926;4.374;2024-01-06T13:20:08;7.40;99.90
19999;DHT22;10160;50.926;4.374;2024-01-06T13:22:34;7.50;99.90
19999;DHT22;10160;50.926;4.374;2024-01-06T13:24:59;7.50;99.90
19999;DHT22;10160;50.926;4.374;2024-01-06T13:27:28;7.50;99.90
19999;DHT22;10160;50.926;4.374;2024-01-06T13:29:54;7.70;99.90
19999;DHT22;10160;50.926;4.374;2024-01-06T13:32:20;7.70;99.90
19999;DHT22;10160;50.926;4.374;2024-01-06T13:34:50;7.80;99.90
19999;DHT22;10160;50.926;4.374;2024-01-06T13:37:19;7.90;99.90
19999;DHT22;10160;50.926;4.374;2024-01-06T13:39:47;7.90;99.90
19999;DHT22;10160;50.926;4.374;2024-01-06T13:42:13;7.80;99.90
19999;DHT22;10160;50.926;4.374;2024-01-06T13:44:39;7.60;99.90
19999;DHT22;10160;50.926;4.374;2024-01-06T13:47:05;7.60;99.90
19999;DHT22;10160;50.926;4.374;2024-01-06T13:49:31;7.70;99.90
19999;DHT22;10160;50.926;4.374;2024-01-06T13:52:06;7.60;99.90
19999;DHT22;10160;50.926;4.374;2024-01-06T13:54:35;7.60;99.90
19999;DHT22;10160;50.926;4.374;2024-01-06T13:57:01;7.60;99.90
19999;DHT22;10160;50.926;4.374;2024-01-06T13:59:29;7.70;99.90
19999;DHT22;10160;50.926;4.374;2024-01-06T14:01:55;7.60;99.90
19999;DHT22;10160;50.926;4.374;2024-01-06T14:04:20;7.70;99.90
19999;DHT22;10160;50.926;4.374;2024-01-06T14:06:49;7.60;99.90
19999;DHT22;10160;50.926;4.374;2024-01-06T14:09:24;7.60;99.90
19999;DHT22;10160;50.926;4.374;2024-01-06T14:11:50;7.70;99.90
19999;DHT22;10160;50.926;4.374;2024-01-06T14:14:15;7.70;99.90
19999;DHT22;10160;50.926;4.374;2024-01-06T14:16:42;7.60;99.90
19999;DHT22;10160;50.926;4.374;2024-01-06T14:19:08;7.60;99.90
19999;DHT22;10160;50.926;4.374;2024-01-06T14:21:34;7.60;99.90
19999;DHT22;10160;50.926;4.374;2024-01-06T14:24:00;7.60;99.90
19999;DHT22;10160;50.926;4.374;2024-01-06T14:26:26;7.60;99.90
19999;DHT22;10160;50.926;4.374;2024-01-06T14:28:52;7.60;99.90
19999;DHT22;10160;50.926;4.374;2024-01-06T14:31:18;7.20;99.90
19999;DHT22;10160;50.926;4.374;2024-01-06T14:33:43;7.10;99.90
19999;DHT22;10160;50.926;4.374;2024-01-06T14:36:09;7.20;99.90
19999;DHT22;10160;50.926;4.374;2024-01-06T14:38:35;7.30;99.90
19999;DHT22;10160;50.926;4.374;2024-01-06T14:41:00;7.30;99.90
19999;DHT22;10160;50.926;4.374;2024-01-06T14:43:26;7.50;99.90
19999;DHT22;10160;50.926;4.374;2024-01-06T14:45:52;7.30;99.90
19999;DHT22;10160;50.926;4.374;2024-01-06T14:48:17;7.30;99.90
19999;DHT22;10160;50.926;4.374;2024-01-06T14:50:43;7.30;99.90
19999;DHT22;10160;50.926;4.374;2024-01-06T14:53:08;7.20;99.90
19999;DHT22;10160;50.926;4.374;2024-01-06T14:55:36;7.20;99.90
19999;DHT22;10160;50.926;4.374;2024-01-06T14:58:03;7.10;99.90
19999;DHT22;10160;50.926;4.374;2024-01-06T15:00:29;6.70;99.90
19999;DHT22;10160;50.926;4.374;2024-01-06T15:02:59;6.70;99.90
19999;DHT22;10160;50.926;4.374;2024-01-06T15:05:25;6.80;99.90
19999;DHT22;10160;50.926;4.374;2024-01-06T15:07:54;7.00;99.90
19999;DHT22;10160;50.926;4.374;2024-01-06T15:10:19;7.10;99.90
19999;DHT22;10160;50.926;4.374;2024-01-06T15:12:45;7.30;99.90
19999;DHT22;10160;50.926;4.374;2024-01-06T15:15:14;7.30;99.90
19999;DHT22;10160;50.926;4.374;2024-01-06T15:17:39;7.20;99.90
19999;DHT22;10160;50.926;4.374;2024-01-06T15:20:06;7.10;99.90
19999;DHT22;10160;50.926;4.374;2024-01-06T15:22:31;7.10;99.90
19999;DHT22;10160;50.926;4.374;2024-01-06T15:24:57;7.20;99.90
19999;DHT22;10160;50.926;4.374;2024-01-06T15:27:27;7.10;99.90
19999;DHT22;10160;50.926;4.374;2024-01-06T15:29:53;7.10;99.90
19999;DHT22;10160;50.926;4.374;2024-01-06T15:32:18;7.10;99.90
19999;DHT22;10160;50.926;4.374;2024-01-06T15:34:44;7.10;99.90
19999;DHT22;10160;50.926;4.374;2024-01-06T15:37:10;7.20;99.90
19999;DHT22;10160;50.926;4.374;2024-01-06T15:39:35;7.30;99.90
19999;DHT22;10160;50.926;4.374;2024-01-06T15:42:01;7.20;99.90
19999;DHT22;10160;50.926;4.374;2024-01-06T15:44:27;7.30;99.90
19999;DHT22;10160;50.926;4.374;2024-01-06T15:46:52;7.30;99.90